createdAt,value
2022-09-02T11:14:25.041Z,0.63
2022-09-02T11:43:58.797Z,0.60
2022-09-02T11:45:19.213Z,0.50
2022-09-02T11:46:31.230Z,0.70
2022-09-02T11:47:45.795Z,0.55
2022-09-02T11:48:53.303Z,0.65
2022-09-02T11:50:15.705Z,0.85
2022-09-02T11:51:23.287Z,0.63
2022-09-02T11:52:42.372Z,0.63
2022-09-02T11:53:45.261Z,0.70
2022-09-02T11:54:48.688Z,0.43
2022-09-02T11:55:54.155Z,0.57
2022-09-02T11:57:01.863Z,0.70
2022-09-02T11:58:04.003Z,0.65
2022-09-02T11:59:06.791Z,1.40
2022-09-02T12:00:11.518Z,0.70
2022-09-02T12:01:16.000Z,0.40
2022-09-02T12:02:36.294Z,0.85
2022-09-02T12:03:52.147Z,0.60
2022-09-02T12:05:18.330Z,1.77
2022-09-02T12:06:22.105Z,0.65
2022-09-02T12:07:26.662Z,0.70
2022-09-02T12:08:35.491Z,0.80
2022-09-02T12:09:52.140Z,0.70
2022-09-02T12:10:59.251Z,0.65
2022-09-02T12:12:02.687Z,0.40
2022-09-02T12:13:09.584Z,0.82
2022-09-02T12:14:31.813Z,0.68
2022-09-02T12:15:38.383Z,0.98
2022-09-02T12:16:44.256Z,0.50
2022-09-02T12:17:46.198Z,0.60
2022-09-02T12:18:58.186Z,0.50
2022-09-02T12:19:59.539Z,0.73
2022-09-02T12:21:06.391Z,0.70
2022-09-02T12:22:17.245Z,0.70
2022-09-02T12:23:37.444Z,0.75
2022-09-02T12:25:44.566Z,0.75
2022-09-02T12:26:45.932Z,0.50
2022-09-02T12:27:50.159Z,0.52
2022-09-02T12:28:52.618Z,0.60
2022-09-02T12:29:55.636Z,0.57
2022-09-02T12:31:08.121Z,0.63
2022-09-02T12:32:09.956Z,0.65
2022-09-02T12:34:25.784Z,2.33
2022-09-02T12:35:39.412Z,0.60
2022-09-02T12:36:42.667Z,1.05
2022-09-02T12:38:16.375Z,0.60
2022-09-02T12:39:23.644Z,0.70
2022-09-02T12:40:32.106Z,1.17
2022-09-02T12:41:33.995Z,0.82
2022-09-02T12:42:40.554Z,0.60
2022-09-02T12:43:47.996Z,0.40
2022-09-02T12:45:08.063Z,0.63
2022-09-02T12:46:25.998Z,0.80
2022-09-02T12:47:45.063Z,0.95
2022-09-02T12:48:58.713Z,0.60
2022-09-02T12:50:05.960Z,0.60
2022-09-02T12:51:14.854Z,0.52
2022-09-02T12:52:34.570Z,0.47
2022-09-02T12:53:39.953Z,0.50
2022-09-02T12:54:44.084Z,0.75
2022-09-02T12:55:54.198Z,0.50
2022-09-02T12:56:55.663Z,0.60
2022-09-02T12:59:02.493Z,0.60
2022-09-02T13:00:04.429Z,0.75
2022-09-02T13:01:05.797Z,0.80
2022-09-02T13:03:08.450Z,0.73
2022-09-02T13:05:16.740Z,1.05
2022-09-02T13:06:36.431Z,0.85
2022-09-02T13:07:37.765Z,0.60
2022-09-02T13:08:51.324Z,0.40
2022-09-02T13:09:52.782Z,0.60
2022-09-02T13:11:55.507Z,0.60
2022-09-02T13:13:58.144Z,0.47
2022-09-02T13:16:22.350Z,0.50
2022-09-02T13:17:36.982Z,0.50
2022-09-02T13:18:55.259Z,0.60
2022-09-02T13:20:17.051Z,1.02
2022-09-02T13:21:30.411Z,0.73
2022-09-02T13:22:35.451Z,0.43
2022-09-02T13:23:43.137Z,0.50
2022-09-02T13:24:56.864Z,0.57
2022-09-02T13:26:22.848Z,0.47
2022-09-02T13:27:53.364Z,0.63
2022-09-02T13:29:06.047Z,0.70
2022-09-02T13:30:11.368Z,0.52
2022-09-02T13:31:19.450Z,0.60
2022-09-02T13:32:23.474Z,0.40
2022-09-02T13:33:25.708Z,0.70
2022-09-02T13:34:28.374Z,0.90
2022-09-02T13:35:30.043Z,0.70
2022-09-02T13:36:34.547Z,0.50
2022-09-02T13:37:40.812Z,0.70
2022-09-02T13:38:45.146Z,0.70
2022-09-02T13:39:46.575Z,0.65
2022-09-02T13:41:49.449Z,0.75
2022-09-02T13:42:52.343Z,0.50
2022-09-02T13:44:07.412Z,0.52
2022-09-02T13:45:20.411Z,0.60
2022-09-02T13:46:22.833Z,0.55
2022-09-02T13:47:24.159Z,0.63
2022-09-02T13:48:29.650Z,0.50
2022-09-02T13:49:37.744Z,0.77
2022-09-02T13:50:42.707Z,0.45
2022-09-02T13:51:46.246Z,0.43
2022-09-02T13:53:49.303Z,0.50
2022-09-02T13:54:23.044Z,0.45
2022-09-02T13:55:25.183Z,0.30
2022-09-02T13:56:29.063Z,0.40
2022-09-02T13:57:31.311Z,0.50
2022-09-02T13:58:37.967Z,0.40
2022-09-02T13:59:40.529Z,0.57
2022-09-02T14:00:42.467Z,0.50
2022-09-02T14:01:45.232Z,0.50
2022-09-02T14:02:57.794Z,0.50
2022-09-02T14:04:01.828Z,0.50
2022-09-02T14:05:05.821Z,0.50
2022-09-02T14:06:10.177Z,0.50
2022-09-02T14:07:13.256Z,0.30
2022-09-02T14:08:16.328Z,0.40
2022-09-02T14:09:36.368Z,0.45
2022-09-02T14:10:39.396Z,0.75
2022-09-02T14:11:42.443Z,0.55
2022-09-02T14:12:44.694Z,0.75
2022-09-02T14:13:50.321Z,0.55
2022-09-02T14:14:52.043Z,0.50
2022-09-02T14:15:53.478Z,0.43
2022-09-02T14:17:13.463Z,0.40
2022-09-02T14:18:18.403Z,0.60
2022-09-02T14:19:20.501Z,0.68
2022-09-02T14:20:22.763Z,0.60
2022-09-02T14:21:24.336Z,0.60
2022-09-02T14:22:29.353Z,0.57
2022-09-02T14:23:33.478Z,0.50
2022-09-02T14:24:40.335Z,0.43
2022-09-02T14:25:49.024Z,0.38
2022-09-02T14:26:54.870Z,0.50
2022-09-02T14:27:57.551Z,0.55
2022-09-02T14:28:58.958Z,0.75
2022-09-02T14:31:03.611Z,0.60
2022-09-02T14:32:11.054Z,0.43
2022-09-02T14:33:30.855Z,0.30
2022-09-02T14:34:35.307Z,0.40
2022-09-02T14:35:36.783Z,0.60
2022-09-02T14:37:49.695Z,0.40
2022-09-02T14:38:57.191Z,0.50
2022-09-02T14:40:12.688Z,0.30
2022-09-02T14:41:17.324Z,0.57
2022-09-02T14:42:21.491Z,0.90
2022-09-02T14:43:23.048Z,0.70
2022-09-02T14:44:36.307Z,0.73
2022-09-02T14:45:37.871Z,0.70
2022-09-02T14:46:53.126Z,0.35
2022-09-02T14:47:57.239Z,0.35
2022-09-02T14:49:01.393Z,0.38
2022-09-02T14:50:03.646Z,0.32
2022-09-02T14:51:06.531Z,0.43
2022-09-02T14:52:17.159Z,0.47
2022-09-02T14:53:22.970Z,0.35
2022-09-02T14:54:53.681Z,0.70
2022-09-02T14:55:56.243Z,0.50
2022-09-02T14:56:57.560Z,0.38
2022-09-02T14:59:00.232Z,0.50
2022-09-02T15:01:03.299Z,0.50
2022-09-02T15:02:04.791Z,0.32
2022-09-02T15:04:10.400Z,0.40
2022-09-02T15:05:16.512Z,0.63
2022-09-02T15:06:21.226Z,0.35
2022-09-02T15:07:23.370Z,0.47
2022-09-02T15:08:26.770Z,0.55
2022-09-02T15:09:28.254Z,0.93
2022-09-02T15:10:30.938Z,0.75
2022-09-02T15:11:32.467Z,0.30
2022-09-02T15:12:34.705Z,0.43
2022-09-02T15:13:36.206Z,0.40
2022-09-02T15:14:39.587Z,0.32
2022-09-02T15:15:41.321Z,0.30
2022-09-02T15:16:42.736Z,0.40
2022-09-02T15:18:45.592Z,1.77
2022-09-02T15:19:47.330Z,0.75
2022-09-02T15:20:48.643Z,0.70
2022-09-02T15:21:50.246Z,0.40
2022-09-02T15:23:55.557Z,0.47
2022-09-02T15:24:58.588Z,0.45
2022-09-02T15:25:59.959Z,0.40
2022-09-02T15:28:02.912Z,0.30
2022-09-02T15:30:08.403Z,0.30
2022-09-02T15:31:10.056Z,0.70
2022-09-02T15:33:17.593Z,0.38
2022-09-02T15:34:20.783Z,0.40
2022-09-02T15:35:22.167Z,0.70
2022-09-02T15:37:28.891Z,0.40
2022-09-02T15:39:31.668Z,0.65
2022-09-02T15:41:35.000Z,0.60
2022-09-02T15:42:36.931Z,0.20
2022-09-02T15:43:39.285Z,0.30
2022-09-02T15:44:40.601Z,0.30
2022-09-02T15:45:47.243Z,0.82
2022-09-02T15:46:48.709Z,0.30
2022-09-02T15:48:52.158Z,0.40
2022-09-02T15:49:53.562Z,0.30
2022-09-02T15:51:57.902Z,0.40
2022-09-02T15:52:59.352Z,0.47
2022-09-02T15:56:04.062Z,0.50
2022-09-02T15:58:06.835Z,0.63
2022-09-02T15:59:10.925Z,0.55
2022-09-02T16:00:12.445Z,0.40
2022-09-02T16:01:13.963Z,0.50
2022-09-02T16:02:15.668Z,0.47
2022-09-02T16:03:17.169Z,0.28
2022-09-02T16:04:18.682Z,0.25
2022-09-02T16:05:21.501Z,0.30
2022-09-02T16:06:25.716Z,0.20
2022-09-02T16:07:27.852Z,0.13
2022-09-02T16:08:29.252Z,0.40
2022-09-02T16:10:32.237Z,0.50
2022-09-02T16:11:33.567Z,0.50
2022-09-02T16:13:36.779Z,0.40
2022-09-02T16:14:38.192Z,0.30
2022-09-02T16:16:42.379Z,0.35
2022-09-02T16:17:44.723Z,0.50
2022-09-02T16:18:50.591Z,0.50
2022-09-02T16:19:52.080Z,0.40
2022-09-02T16:20:53.564Z,0.50
2022-09-02T16:21:54.908Z,0.50
2022-09-02T16:23:57.591Z,0.57
2022-09-02T16:26:10.496Z,0.50
2022-09-02T16:27:11.830Z,0.50
2022-09-02T16:29:17.681Z,0.43
2022-09-02T16:30:22.625Z,0.63
2022-09-02T16:31:25.812Z,0.68
2022-09-02T16:32:28.496Z,0.63
2022-09-02T16:33:30.171Z,0.50
2022-09-02T16:34:31.635Z,0.50
2022-09-02T16:36:35.932Z,0.38
2022-09-02T16:37:37.415Z,1.15
2022-09-02T16:40:49.198Z,0.63
2022-09-02T16:41:53.189Z,0.80
2022-09-02T16:42:54.528Z,0.90
2022-09-02T16:44:58.462Z,0.60
2022-09-02T16:47:04.558Z,0.40
2022-09-02T16:48:08.630Z,1.50
2022-09-02T16:49:11.002Z,0.60
2022-09-02T16:50:12.680Z,0.50
2022-09-02T16:51:14.431Z,0.43
2022-09-02T16:52:15.811Z,0.40
2022-09-02T16:54:30.663Z,0.50
2022-09-02T16:55:33.785Z,0.60
2022-09-02T16:56:39.845Z,0.47
2022-09-02T16:57:41.215Z,0.57
2022-09-02T16:59:43.906Z,0.50
2022-09-02T17:01:46.707Z,0.70
2022-09-02T17:03:50.530Z,0.60
2022-09-02T17:04:52.098Z,0.38
2022-09-02T17:05:55.051Z,0.70
2022-09-02T17:06:57.970Z,0.50
2022-09-02T17:08:01.387Z,0.50
2022-09-02T17:09:02.875Z,0.40
2022-09-02T17:10:05.943Z,0.70
2022-09-02T17:11:10.988Z,0.38
2022-09-02T17:12:14.840Z,0.43
2022-09-02T17:13:16.460Z,0.43
2022-09-02T17:15:19.219Z,0.35
2022-09-02T17:17:22.020Z,0.40
2022-09-02T17:19:31.509Z,0.47
2022-09-02T17:20:33.750Z,0.70
2022-09-02T17:22:36.724Z,0.55
2022-09-02T17:24:41.845Z,0.57
2022-09-02T17:25:45.567Z,0.43
2022-09-02T17:26:48.454Z,0.40
2022-09-02T17:27:49.783Z,0.60
2022-09-02T17:28:54.610Z,1.02
2022-09-02T17:29:57.297Z,0.40
2022-09-02T17:30:58.918Z,0.55
2022-09-02T17:32:00.428Z,0.60
2022-09-02T17:34:04.841Z,0.50
2022-09-02T17:35:07.975Z,0.60
2022-09-02T17:36:11.673Z,0.47
2022-09-02T17:37:13.847Z,0.50
2022-09-02T17:39:17.304Z,0.90
2022-09-02T17:40:37.458Z,0.80
2022-09-02T17:44:19.091Z,2.17
2022-09-02T17:45:20.652Z,1.38
2022-09-02T17:46:22.317Z,1.13
2022-09-02T17:47:24.365Z,1.40
2022-09-02T17:48:41.788Z,1.50
2022-09-02T17:49:47.587Z,1.27
2022-09-02T17:50:49.246Z,0.90
2022-09-02T17:51:50.805Z,0.80
2022-09-02T17:52:52.431Z,0.80
2022-09-02T17:53:54.123Z,0.75
2022-09-02T17:54:55.899Z,0.70
2022-09-02T17:56:21.813Z,1.00
2022-09-02T17:57:37.966Z,0.70
2022-09-02T17:58:54.258Z,0.43
2022-09-02T18:00:00.558Z,0.70
2022-09-02T18:01:03.430Z,0.80
2022-09-02T18:02:08.079Z,0.90
2022-09-02T18:03:22.286Z,1.15
2022-09-02T18:04:29.884Z,2.05
2022-09-02T18:05:49.334Z,1.92
2022-09-02T18:06:53.844Z,1.50
2022-09-02T18:08:04.486Z,1.30
2022-09-02T18:09:07.274Z,1.10
2022-09-02T18:10:13.391Z,0.80
2022-09-02T18:11:14.923Z,0.90
2022-09-02T18:12:18.673Z,0.70
2022-09-02T18:13:26.480Z,0.70
2022-09-02T18:14:45.812Z,0.52
2022-09-02T18:15:47.468Z,0.80
2022-09-02T18:17:07.971Z,0.90
2022-09-02T18:18:17.122Z,0.70
2022-09-02T18:19:48.562Z,0.80
2022-09-02T18:20:54.627Z,0.70
2022-09-02T18:22:19.511Z,0.60
2022-09-02T18:23:27.488Z,0.70
2022-09-02T18:24:52.852Z,0.50
2022-09-02T18:25:57.288Z,0.50
2022-09-02T18:26:59.079Z,0.60
2022-09-02T18:28:10.955Z,0.60
2022-09-02T18:29:16.535Z,0.52
2022-09-02T18:30:22.610Z,0.65
2022-09-02T18:31:25.010Z,0.50
2022-09-02T18:32:36.212Z,0.50
2022-09-02T18:33:56.428Z,0.50
2022-09-02T18:35:03.960Z,0.63
2022-09-02T18:36:14.780Z,0.77
2022-09-02T18:37:36.158Z,0.50
2022-09-02T18:38:44.041Z,0.70
2022-09-02T18:40:02.505Z,1.45
2022-09-02T18:41:15.873Z,0.70
2022-09-02T18:42:28.431Z,0.50
2022-09-02T18:43:48.678Z,0.80
2022-09-02T18:45:08.559Z,0.70
2022-09-02T18:46:11.614Z,0.60
2022-09-02T18:47:16.877Z,0.45
2022-09-02T18:48:25.813Z,0.60
2022-09-02T18:49:28.509Z,0.50
2022-09-02T18:50:51.354Z,0.70
2022-09-02T18:51:56.968Z,0.82
2022-09-02T18:53:00.514Z,0.65
2022-09-02T18:54:14.253Z,0.90
2022-09-02T18:55:16.831Z,0.70
2022-09-02T18:56:19.296Z,0.60
2022-09-02T18:57:22.877Z,1.10
2022-09-02T18:58:35.171Z,0.77
2022-09-02T18:59:42.587Z,0.80
2022-09-02T19:00:57.897Z,0.63
2022-09-02T19:02:03.130Z,1.02
2022-09-02T19:03:05.992Z,0.80
2022-09-02T19:04:08.036Z,0.70
2022-09-02T19:05:15.486Z,0.73
2022-09-02T19:06:27.842Z,1.02
2022-09-02T19:07:50.072Z,0.88
2022-09-02T19:09:01.848Z,1.20
2022-09-02T19:10:05.621Z,1.08
2022-09-02T19:11:10.711Z,1.20
2022-09-02T19:12:16.060Z,0.70
2022-09-02T19:13:20.996Z,1.00
2022-09-02T19:14:22.754Z,1.00
2022-09-02T19:15:27.700Z,0.70
2022-09-02T19:16:33.370Z,0.82
2022-09-02T19:17:36.361Z,1.08
2022-09-02T19:18:37.904Z,0.93
2022-09-02T19:19:39.640Z,1.00
2022-09-02T19:20:42.291Z,1.05
2022-09-02T19:21:47.996Z,0.80
2022-09-02T19:22:53.151Z,0.90
2022-09-02T19:23:54.924Z,0.82
2022-09-02T19:25:59.816Z,0.93
2022-09-02T19:32:23.328Z,0.60
2022-09-02T19:33:24.979Z,0.60
2022-09-02T19:34:31.534Z,0.73
2022-09-02T19:35:35.912Z,0.40
2022-09-02T19:36:39.597Z,0.70
2022-09-02T19:37:44.782Z,0.73
2022-09-02T19:38:47.492Z,0.80
2022-09-02T19:39:51.296Z,0.50
2022-09-02T19:40:53.374Z,0.75
2022-09-02T19:41:56.228Z,0.65
2022-09-02T19:42:57.819Z,0.73
2022-09-02T19:44:01.046Z,0.80
2022-09-02T19:45:02.752Z,0.90
2022-09-02T19:46:04.879Z,0.90
2022-09-02T19:48:29.730Z,1.02
2022-09-02T19:49:31.602Z,1.02
2022-09-02T19:50:33.615Z,0.90
2022-09-02T19:51:35.292Z,1.10
2022-09-02T19:52:46.850Z,0.85
2022-09-02T19:53:48.581Z,0.80
2022-09-02T19:54:50.915Z,0.98
2022-09-02T19:55:53.523Z,1.40
2022-09-02T19:56:55.325Z,1.35
2022-09-02T19:57:56.947Z,1.10
2022-09-02T20:00:00.034Z,1.30
2022-09-02T20:01:03.059Z,0.75
2022-09-02T20:02:05.009Z,1.02
2022-09-02T20:03:06.580Z,0.93
2022-09-02T20:04:08.471Z,0.80
2022-09-02T20:05:10.900Z,0.80
2022-09-02T20:06:14.568Z,1.42
2022-09-02T20:07:16.476Z,1.80
2022-09-02T20:08:19.562Z,1.10
2022-09-02T20:09:21.389Z,1.17
2022-09-02T20:10:27.775Z,0.82
2022-09-02T20:11:30.914Z,1.05
2022-09-02T20:12:34.338Z,1.10
2022-09-02T20:13:41.009Z,1.20
2022-09-02T20:14:43.074Z,0.90
2022-09-02T20:15:44.756Z,1.00
2022-09-02T20:16:46.378Z,1.02
2022-09-02T20:17:48.156Z,1.55
2022-09-02T20:18:51.045Z,3.53
2022-09-02T20:19:55.520Z,1.75
2022-09-02T20:20:58.807Z,1.48
2022-09-02T20:22:00.656Z,1.63
2022-09-02T20:23:02.110Z,1.33
2022-09-02T20:25:08.275Z,1.50
2022-09-02T20:26:09.863Z,1.42
2022-09-02T20:27:15.286Z,1.27
2022-09-02T20:28:31.303Z,1.50
2022-09-02T20:29:51.542Z,1.20
2022-09-02T20:30:57.804Z,1.50
2022-09-02T20:32:09.899Z,1.58
2022-09-02T20:33:16.617Z,1.98
2022-09-02T20:34:36.900Z,1.40
2022-09-02T20:35:44.355Z,1.63
2022-09-02T20:36:48.472Z,1.35
2022-09-02T20:37:51.785Z,1.20
2022-09-02T20:39:19.161Z,0.98
2022-09-02T20:40:23.585Z,1.05
2022-09-02T20:41:37.959Z,0.88
2022-09-02T20:43:04.307Z,1.05
2022-09-02T20:44:20.745Z,0.90
2022-09-02T20:45:35.444Z,0.95
2022-09-02T20:47:40.987Z,0.80
2022-09-02T20:48:51.342Z,1.10
2022-09-02T20:49:55.782Z,0.80
2022-09-02T20:51:05.608Z,0.90
2022-09-02T20:52:07.119Z,0.95
2022-09-02T20:53:27.210Z,1.10
2022-09-02T20:54:38.480Z,1.95
2022-09-02T20:55:46.520Z,1.75
2022-09-02T20:56:47.908Z,3.10
2022-09-02T20:58:16.288Z,2.30
2022-09-02T20:59:47.501Z,2.53
2022-09-02T21:01:07.357Z,2.30
2022-09-02T21:02:10.301Z,1.98
2022-09-02T21:03:12.135Z,2.08
2022-09-02T21:04:24.840Z,1.67
2022-09-02T21:05:28.306Z,0.98
2022-09-02T21:06:49.940Z,1.52
2022-09-02T21:07:59.867Z,1.38
2022-09-02T21:09:04.018Z,1.20
2022-09-02T21:10:16.660Z,1.10
2022-09-02T21:11:18.712Z,1.50
2022-09-02T21:12:37.293Z,1.15
2022-09-02T21:13:44.266Z,1.10
2022-09-02T21:14:46.747Z,0.98
2022-09-02T21:15:49.520Z,0.70
2022-09-02T21:17:12.590Z,0.73
2022-09-02T21:18:18.431Z,0.90
2022-09-02T21:19:22.863Z,1.15
2022-09-02T21:22:30.063Z,2.03
2022-09-02T21:23:31.351Z,2.03
2022-09-02T21:24:51.255Z,1.77
2022-09-02T21:25:55.885Z,1.30
2022-09-02T21:27:03.251Z,1.15
2022-09-02T21:28:30.875Z,1.20
2022-09-02T21:29:38.230Z,1.50
2022-09-02T21:30:41.720Z,1.90
2022-09-02T21:32:06.391Z,1.80
2022-09-02T21:33:12.116Z,1.60
2022-09-02T21:34:19.866Z,2.10
2022-09-02T21:35:31.389Z,1.85
2022-09-02T21:36:34.659Z,1.67
2022-09-02T21:37:37.396Z,1.88
2022-09-02T21:38:44.252Z,1.90
2022-09-02T21:39:48.870Z,1.90
2022-09-02T21:41:05.967Z,1.73
2022-09-02T21:42:12.661Z,1.80
2022-09-02T21:43:22.458Z,2.10
2022-09-02T21:44:40.639Z,1.95
2022-09-02T21:45:51.143Z,1.80
2022-09-02T21:46:58.958Z,1.70
2022-09-02T21:48:08.716Z,3.42
2022-09-02T21:49:31.167Z,3.28
2022-09-02T21:51:37.744Z,4.35
2022-09-02T21:52:45.903Z,4.30
2022-09-02T21:53:56.404Z,4.72
2022-09-02T21:55:16.179Z,4.07
2022-09-02T21:56:36.122Z,2.80
2022-09-02T21:57:38.492Z,2.20
2022-09-02T21:58:55.795Z,2.03
2022-09-02T22:00:01.408Z,3.58
2022-09-02T22:01:02.947Z,2.40
2022-09-02T22:02:25.734Z,1.80
2022-09-02T22:03:37.025Z,2.10
2022-09-02T22:04:47.567Z,2.50
2022-09-02T22:06:01.863Z,3.50
2022-09-02T22:07:19.094Z,3.13
2022-09-02T22:08:20.430Z,2.03
2022-09-02T22:09:29.964Z,1.98
2022-09-02T22:10:31.255Z,1.90
2022-09-02T22:11:36.959Z,2.08
2022-09-02T22:12:39.876Z,1.65
2022-09-02T22:13:41.963Z,1.40
2022-09-02T22:14:44.244Z,1.42
2022-09-02T22:16:04.955Z,1.75
2022-09-02T22:17:14.427Z,1.40
2022-09-02T22:18:37.558Z,1.60
2022-09-02T22:19:40.303Z,1.50
2022-09-02T22:20:45.024Z,1.45
2022-09-02T22:21:48.638Z,1.70
2022-09-02T22:22:53.409Z,1.70
2022-09-02T22:23:55.328Z,1.67
2022-09-02T22:24:57.965Z,1.30
2022-09-02T22:26:05.628Z,1.27
2022-09-02T22:27:12.527Z,1.85
2022-09-02T22:28:31.173Z,1.38
2022-09-02T22:29:37.451Z,1.40
2022-09-02T22:30:41.307Z,1.90
2022-09-02T22:31:45.128Z,2.47
2022-09-02T22:32:47.863Z,2.85
2022-09-02T22:33:55.615Z,3.28
2022-09-02T22:35:02.904Z,3.53
2022-09-02T22:36:10.325Z,3.60
2022-09-02T22:37:18.805Z,3.58
2022-09-02T22:38:26.571Z,3.85
2022-09-02T22:39:32.985Z,3.33
2022-09-02T22:40:36.071Z,3.70
2022-09-02T22:41:52.908Z,3.50
2022-09-02T22:42:57.764Z,3.05
2022-09-02T22:44:03.988Z,2.80
2022-09-02T22:45:24.057Z,1.25
2022-09-02T22:46:47.989Z,0.98
2022-09-02T22:48:12.273Z,1.20
2022-09-02T22:49:34.176Z,1.23
2022-09-02T22:50:57.177Z,1.48
2022-09-02T22:52:23.367Z,1.40
2022-09-02T22:53:24.731Z,1.20
2022-09-02T22:54:29.644Z,1.50
2022-09-02T22:55:51.157Z,3.00
2022-09-02T22:57:13.012Z,2.50
2022-09-02T22:58:21.219Z,2.90
2022-09-02T22:59:40.781Z,2.97
2022-09-02T23:00:47.038Z,3.10
2022-09-02T23:01:51.698Z,2.65
2022-09-02T23:03:02.389Z,2.65
2022-09-02T23:04:15.543Z,3.60
2022-09-02T23:05:36.858Z,3.00
2022-09-02T23:06:39.026Z,2.22
2022-09-02T23:07:41.643Z,2.38
2022-09-02T23:08:44.238Z,2.65
2022-09-02T23:09:47.343Z,2.55
2022-09-02T23:11:01.904Z,2.67
2022-09-02T23:12:05.462Z,2.20
2022-09-02T23:13:19.103Z,2.65
2022-09-02T23:14:38.870Z,2.83
2022-09-02T23:15:44.838Z,3.63
2022-09-02T23:17:02.987Z,3.00
2022-09-02T23:18:18.438Z,2.67
2022-09-02T23:19:20.297Z,2.72
2022-09-02T23:20:25.492Z,2.30
2022-09-02T23:21:26.827Z,2.40
2022-09-02T23:22:37.018Z,2.38
2022-09-02T23:23:45.211Z,2.20
2022-09-02T23:24:54.126Z,1.80
2022-09-02T23:26:14.306Z,2.00
2022-09-02T23:27:22.927Z,1.70
2022-09-02T23:28:25.362Z,2.47
2022-09-02T23:29:26.964Z,1.90
2022-09-02T23:30:31.793Z,2.00
2022-09-02T23:31:43.134Z,2.13
2022-09-02T23:33:03.600Z,1.90
2022-09-02T23:34:11.608Z,1.88
2022-09-02T23:35:20.173Z,2.00
2022-09-02T23:36:34.584Z,2.22
2022-09-02T23:37:50.659Z,2.50
2022-09-02T23:39:10.883Z,1.90
2022-09-02T23:40:18.173Z,2.13
2022-09-02T23:41:20.032Z,1.80
2022-09-02T23:42:23.458Z,2.38
2022-09-02T23:43:25.491Z,1.90
2022-09-02T23:44:28.942Z,2.03
2022-09-02T23:45:34.088Z,1.90
2022-09-02T23:46:47.557Z,1.75
2022-09-02T23:48:09.115Z,1.92
2022-09-02T23:49:10.692Z,1.73
2022-09-02T23:50:25.465Z,1.60
2022-09-02T23:51:29.672Z,1.60
2022-09-02T23:52:45.432Z,1.67
2022-09-02T23:54:05.916Z,1.48
2022-09-02T23:55:16.798Z,1.60
2022-09-02T23:56:27.026Z,1.75
2022-09-02T23:57:45.100Z,2.50
2022-09-02T23:59:05.976Z,1.95
